createdAt,value
2018-04-17T00:02:13.172Z,89.79
2018-04-17T00:04:41.767Z,90.02
2018-04-17T00:07:10.157Z,90.14
2018-04-17T00:09:38.535Z,89.97
2018-04-17T00:12:07.010Z,89.99
2018-04-17T00:14:35.365Z,90.12
2018-04-17T00:17:04.506Z,90.11
2018-04-17T00:19:32.893Z,90.29
2018-04-17T00:22:01.288Z,90.24
2018-04-17T00:24:29.674Z,90.33
2018-04-17T00:26:58.066Z,90.50
2018-04-17T00:29:26.441Z,90.54
2018-04-17T00:31:54.995Z,90.43
2018-04-17T00:34:23.434Z,90.13
2018-04-17T00:36:51.849Z,90.11
2018-04-17T00:39:20.222Z,90.60
2018-04-17T00:41:48.610Z,90.63
2018-04-17T00:44:16.986Z,90.53
2018-04-17T00:46:46.130Z,90.66
2018-04-17T00:49:14.531Z,90.61
2018-04-17T00:51:42.920Z,90.78
2018-04-17T00:54:11.298Z,90.78
2018-04-17T00:56:39.695Z,91.13
2018-04-17T00:59:08.083Z,91.12
2018-04-17T01:01:36.458Z,90.82
2018-04-17T01:04:04.834Z,91.07
2018-04-17T01:06:33.282Z,91.17
2018-04-17T01:09:01.662Z,91.13
2018-04-17T01:11:30.042Z,91.19
2018-04-17T01:13:58.418Z,91.33
2018-04-17T01:16:26.784Z,91.27
2018-04-17T01:18:55.933Z,91.40
2018-04-17T01:21:24.318Z,91.38
2018-04-17T01:23:52.649Z,91.47
2018-04-17T01:26:21.031Z,91.48
2018-04-17T01:28:50.150Z,91.52
2018-04-17T01:31:18.538Z,91.64
2018-04-17T01:33:46.907Z,91.70
2018-04-17T01:36:15.282Z,91.60
2018-04-17T01:38:44.426Z,92.02
2018-04-17T01:43:40.142Z,91.79
2018-04-17T01:46:08.530Z,91.84
2018-04-17T01:48:36.917Z,91.79
2018-04-17T01:51:05.305Z,91.86
2018-04-17T01:53:33.666Z,91.81
2018-04-17T01:56:02.052Z,92.00
2018-04-17T01:58:30.442Z,91.94
2018-04-17T02:00:58.809Z,92.12
2018-04-17T02:03:27.255Z,92.12
2018-04-17T02:05:55.632Z,92.22
2018-04-17T02:08:24.013Z,92.20
2018-04-17T02:10:52.403Z,92.62
2018-04-17T02:13:20.785Z,92.63
2018-04-17T02:15:49.174Z,92.69
2018-04-17T02:18:17.566Z,92.40
2018-04-17T02:20:46.710Z,92.50
2018-04-17T02:23:15.155Z,92.45
2018-04-17T02:25:44.326Z,92.59
2018-04-17T02:28:12.690Z,92.62
2018-04-17T02:30:41.057Z,92.54
2018-04-17T02:33:09.471Z,92.58
2018-04-17T02:35:37.841Z,92.51
2018-04-17T02:38:06.234Z,92.55
2018-04-17T02:40:34.628Z,92.55
2018-04-17T02:43:02.998Z,92.72
2018-04-17T02:45:31.380Z,92.71
2018-04-17T02:47:59.755Z,92.64
2018-04-17T02:50:28.137Z,92.66
2018-04-17T02:52:56.497Z,92.88
2018-04-17T02:55:24.902Z,92.88
2018-04-17T02:57:53.271Z,93.11
2018-04-17T03:00:21.721Z,93.01
2018-04-17T03:02:50.879Z,93.09
2018-04-17T03:05:19.233Z,92.88
2018-04-17T03:07:47.634Z,92.88
2018-04-17T03:10:16.013Z,93.21
2018-04-17T03:12:44.390Z,93.00
2018-04-17T03:15:12.755Z,93.05
2018-04-17T03:17:41.133Z,92.91
2018-04-17T03:20:09.595Z,92.77
2018-04-17T03:22:38.743Z,92.78
2018-04-17T03:25:07.138Z,92.68
2018-04-17T03:27:35.520Z,92.79
2018-04-17T03:30:03.906Z,92.87
2018-04-17T03:32:32.284Z,93.08
2018-04-17T03:35:00.674Z,93.17
2018-04-17T03:37:29.034Z,93.04
2018-04-17T03:39:57.427Z,93.09
2018-04-17T03:42:25.820Z,93.14
2018-04-17T03:44:54.181Z,93.21
2018-04-17T03:47:22.556Z,93.25
2018-04-17T03:49:50.938Z,93.23
2018-04-17T03:52:19.368Z,93.40
2018-04-17T03:54:47.778Z,93.42
2018-04-17T03:57:16.932Z,93.31
2018-04-17T03:59:45.323Z,93.28
2018-04-17T04:02:13.746Z,93.25
2018-04-17T04:04:42.915Z,93.33
2018-04-17T04:07:11.342Z,93.39
2018-04-17T04:09:39.721Z,93.32
2018-04-17T04:12:08.088Z,93.52
2018-04-17T04:14:37.248Z,93.51
2018-04-17T04:17:23.349Z,93.58
2018-04-17T04:20:09.689Z,93.63
2018-04-17T04:22:56.561Z,93.52
2018-04-17T04:25:52.650Z,93.50
2018-04-17T04:28:21.206Z,93.50
2018-04-17T04:30:49.674Z,93.40
2018-04-17T04:33:18.835Z,93.33
2018-04-17T04:35:47.218Z,93.21
2018-04-17T04:38:15.642Z,93.54
2018-04-17T04:40:44.794Z,93.45
2018-04-17T04:43:13.178Z,93.41
2018-04-17T04:45:42.363Z,93.31
2018-04-17T04:48:10.837Z,92.98
2018-04-17T04:50:40.070Z,92.64
2018-04-17T04:53:08.457Z,92.54
2018-04-17T04:55:36.886Z,92.44
2018-04-17T04:58:05.291Z,92.45
2018-04-17T05:00:33.673Z,92.49
2018-04-17T05:03:02.074Z,92.00
2018-04-17T05:05:30.529Z,91.89
2018-04-17T05:07:59.804Z,91.79
2018-04-17T05:10:29.591Z,91.32
2018-04-17T05:12:57.998Z,90.96
2018-04-17T05:15:26.419Z,90.67
2018-04-17T05:17:54.831Z,90.45
2018-04-17T05:20:23.290Z,90.57
2018-04-17T05:22:51.667Z,90.47
2018-04-17T05:25:20.053Z,90.67
2018-04-17T05:27:48.437Z,90.67
2018-04-17T05:30:16.850Z,91.13
2018-04-17T05:32:45.254Z,90.88
2018-04-17T05:35:13.677Z,90.91
2018-04-17T05:37:42.075Z,91.12
2018-04-17T05:40:10.511Z,90.67
2018-04-17T05:42:38.878Z,90.16
2018-04-17T05:45:07.326Z,89.33
2018-04-17T05:47:35.774Z,88.35
2018-04-17T05:50:04.952Z,87.24
2018-04-17T05:52:33.337Z,86.84
2018-04-17T05:55:01.811Z,85.72
2018-04-17T05:57:30.214Z,84.50
2018-04-17T05:59:58.640Z,83.91
2018-04-17T06:02:27.046Z,81.89
2018-04-17T06:04:55.442Z,81.53
2018-04-17T06:07:24.585Z,80.36
2018-04-17T06:09:53.751Z,78.08
2018-04-17T06:12:22.138Z,77.21
2018-04-17T06:14:50.561Z,76.98
2018-04-17T06:17:18.938Z,76.37
2018-04-17T06:19:47.382Z,76.57
2018-04-17T06:22:15.777Z,74.76
2018-04-17T06:24:44.176Z,73.21
2018-04-17T06:27:13.317Z,74.84
2018-04-17T06:29:41.719Z,73.22
2018-04-17T06:32:10.117Z,68.43
2018-04-17T06:34:38.509Z,72.04
2018-04-17T06:37:06.873Z,66.58
2018-04-17T06:39:35.336Z,69.12
2018-04-17T06:42:03.819Z,65.26
2018-04-17T06:44:32.174Z,62.47
2018-04-17T06:47:01.321Z,60.92
2018-04-17T06:49:29.705Z,61.62
2018-04-17T06:51:58.109Z,60.43
2018-04-17T06:54:26.498Z,60.62
2018-04-17T06:56:54.894Z,57.84
2018-04-17T06:59:24.081Z,55.95
2018-04-17T07:01:52.494Z,55.83
2018-04-17T07:04:21.683Z,53.91
2018-04-17T07:06:50.855Z,50.46
2018-04-17T07:09:19.253Z,50.04
2018-04-17T07:11:47.685Z,50.64
2018-04-17T07:14:16.112Z,49.31
2018-04-17T07:16:44.490Z,48.74
2018-04-17T07:19:12.902Z,50.12
2018-04-17T07:21:42.059Z,49.41
2018-04-17T07:24:10.469Z,47.91
2018-04-17T07:26:38.897Z,49.54
2018-04-17T07:29:07.305Z,48.48
2018-04-17T07:31:35.740Z,49.08
2018-04-17T07:34:04.924Z,47.37
2018-04-17T07:36:33.311Z,45.96
2018-04-17T07:39:01.721Z,48.41
2018-04-17T07:41:30.102Z,48.96
2018-04-17T07:43:58.519Z,44.03
2018-04-17T07:46:26.909Z,44.54
2018-04-17T07:48:55.306Z,44.30
2018-04-17T07:51:23.706Z,45.50
2018-04-17T07:53:52.109Z,44.38
2018-04-17T07:56:21.294Z,43.20
2018-04-17T07:58:49.729Z,42.61
2018-04-17T08:01:18.153Z,39.13
2018-04-17T08:03:46.561Z,40.23
2018-04-17T08:06:15.722Z,42.89
2018-04-17T08:08:44.126Z,43.36
2018-04-17T08:11:12.511Z,42.72
2018-04-17T08:13:40.878Z,42.32
2018-04-17T08:16:09.291Z,39.02
2018-04-17T08:18:38.446Z,39.53
2018-04-17T08:21:06.830Z,41.14
2018-04-17T08:23:35.200Z,41.32
2018-04-17T08:26:03.636Z,41.06
2018-04-17T08:28:32.011Z,41.77
2018-04-17T08:31:00.419Z,38.76
2018-04-17T08:33:29.582Z,38.89
2018-04-17T08:35:57.978Z,38.97
2018-04-17T08:38:26.380Z,39.10
2018-04-17T08:40:55.531Z,37.95
2018-04-17T08:43:23.930Z,41.86
2018-04-17T08:45:52.313Z,40.85
2018-04-17T08:48:20.712Z,38.00
2018-04-17T08:50:49.104Z,37.83
2018-04-17T08:53:17.576Z,41.86
2018-04-17T08:55:45.981Z,40.76
2018-04-17T08:58:15.135Z,35.88
2018-04-17T09:00:43.555Z,35.37
2018-04-17T09:03:11.935Z,35.97
2018-04-17T09:05:40.318Z,38.48
2018-04-17T09:08:08.737Z,37.80
2018-04-17T09:10:38.936Z,36.86
2018-04-17T09:13:07.382Z,37.78
2018-04-17T09:15:35.788Z,36.82
2018-04-17T09:18:04.188Z,35.36
2018-04-17T09:20:33.345Z,36.40
2018-04-17T09:23:02.533Z,34.45
2018-04-17T09:25:30.961Z,36.30
2018-04-17T09:27:59.379Z,35.71
2018-04-17T09:30:27.797Z,37.88
2018-04-17T09:32:56.229Z,37.38
2018-04-17T09:35:25.852Z,38.07
2018-04-17T09:37:54.268Z,37.69
2018-04-17T09:40:22.674Z,38.11
2018-04-17T09:42:51.085Z,36.22
2018-04-17T09:45:20.290Z,36.92
2018-04-17T09:47:48.699Z,35.68
2018-04-17T09:50:17.082Z,33.21
2018-04-17T09:52:49.707Z,35.06
2018-04-17T09:55:18.107Z,34.15
2018-04-17T09:57:46.517Z,33.98
2018-04-17T10:00:15.686Z,35.61
2018-04-17T10:02:44.113Z,33.30
2018-04-17T10:05:12.521Z,32.77
2018-04-17T10:07:41.034Z,33.02
2018-04-17T10:10:09.486Z,33.59
2018-04-17T10:12:37.949Z,35.09
2018-04-17T10:15:07.397Z,34.47
2018-04-17T10:17:36.541Z,33.05
2018-04-17T10:20:11.323Z,34.21
2018-04-17T10:22:39.790Z,32.40
2018-04-17T10:25:08.197Z,33.48
2018-04-17T10:27:36.593Z,33.38
2018-04-17T10:30:04.969Z,33.97
2018-04-17T10:32:35.393Z,34.67
2018-04-17T10:35:03.785Z,34.44
2018-04-17T10:37:32.225Z,34.21
2018-04-17T10:40:00.635Z,33.64
2018-04-17T10:42:29.022Z,32.98
2018-04-17T10:44:57.409Z,33.60
2018-04-17T10:47:25.876Z,34.56
2018-04-17T10:49:54.272Z,34.44
2018-04-17T10:52:22.659Z,33.98
2018-04-17T10:54:51.107Z,33.23
2018-04-17T10:57:19.485Z,32.15
2018-04-17T10:59:47.943Z,31.68
2018-04-17T11:02:16.249Z,30.96
2018-04-17T11:04:44.775Z,31.21
2018-04-17T11:07:13.145Z,33.63
2018-04-17T11:09:41.535Z,35.47
2018-04-17T11:12:09.941Z,32.54
2018-04-17T11:14:38.333Z,33.19
2018-04-17T11:17:06.745Z,33.12
2018-04-17T11:19:35.902Z,34.95
2018-04-17T11:22:04.281Z,34.75
2018-04-17T11:24:32.675Z,34.44
2018-04-17T11:27:01.071Z,31.77
2018-04-17T11:29:29.463Z,32.60
2018-04-17T11:31:57.866Z,34.54
2018-04-17T11:34:27.101Z,33.77
2018-04-17T11:36:56.228Z,33.95
2018-04-17T11:39:24.607Z,32.54
2018-04-17T11:41:53.031Z,34.60
2018-04-17T11:44:22.222Z,34.85
2018-04-17T11:46:51.383Z,35.10
2018-04-17T11:49:19.790Z,34.18
2018-04-17T11:51:48.248Z,34.44
2018-04-17T11:54:16.641Z,34.95
2018-04-17T11:56:45.024Z,34.66
2018-04-17T11:59:13.412Z,33.45
2018-04-17T12:01:42.563Z,32.62
2018-04-17T12:04:10.955Z,32.46
2018-04-17T12:06:39.485Z,32.28
2018-04-17T12:09:09.368Z,34.17
2018-04-17T12:11:37.750Z,35.31
2018-04-17T12:14:06.150Z,31.47
2018-04-17T12:16:35.310Z,33.05
2018-04-17T12:19:04.461Z,32.16
2018-04-17T12:21:32.871Z,32.82
2018-04-17T12:24:01.274Z,33.57
2018-04-17T12:26:30.441Z,34.21
2018-04-17T12:28:58.846Z,34.31
2018-04-17T12:31:28.081Z,33.91
2018-04-17T12:33:56.465Z,34.33
2018-04-17T12:36:24.914Z,32.84
2018-04-17T12:38:54.086Z,33.50
2018-04-17T12:41:22.484Z,32.98
2018-04-17T12:43:50.861Z,34.65
2018-04-17T12:46:19.249Z,33.70
2018-04-17T12:48:47.686Z,32.40
2018-04-17T12:51:16.078Z,32.28
2018-04-17T12:53:44.472Z,34.11
2018-04-17T12:56:12.880Z,33.45
2018-04-17T12:58:41.441Z,34.50
2018-04-17T13:01:09.837Z,34.66
2018-04-17T13:03:38.231Z,33.92
2018-04-17T13:06:06.611Z,32.99
2018-04-17T13:08:35.100Z,33.34
2018-04-17T13:11:03.526Z,33.70
2018-04-17T13:13:32.663Z,34.47
2018-04-17T13:16:01.057Z,32.38
2018-04-17T13:18:29.457Z,32.08
2018-04-17T13:20:57.896Z,33.95
2018-04-17T13:23:26.287Z,31.11
2018-04-17T13:25:54.713Z,33.79
2018-04-17T13:28:23.094Z,30.52
2018-04-17T13:30:51.498Z,31.68
2018-04-17T13:33:20.690Z,32.51
2018-04-17T13:35:49.877Z,32.98
2018-04-17T13:38:18.278Z,32.54
2018-04-17T13:40:47.426Z,31.48
2018-04-17T13:43:15.937Z,31.21
2018-04-17T13:45:44.329Z,31.23
2018-04-17T13:48:12.713Z,32.49
2018-04-17T13:50:41.123Z,32.80
2018-04-17T13:53:10.275Z,32.01
2018-04-17T13:55:38.728Z,32.80
2018-04-17T13:58:07.119Z,32.83
2018-04-17T14:00:35.606Z,33.51
2018-04-17T14:03:03.994Z,31.90
2018-04-17T14:05:32.423Z,32.42
2018-04-17T14:08:00.855Z,32.94
2018-04-17T14:10:29.267Z,31.02
2018-04-17T14:12:57.746Z,33.12
2018-04-17T14:15:26.128Z,31.10
2018-04-17T14:17:54.517Z,30.83
2018-04-17T14:20:22.940Z,30.80
2018-04-17T14:22:51.369Z,31.43
2018-04-17T14:25:19.771Z,31.82
2018-04-17T14:27:48.200Z,30.34
2018-04-17T14:30:17.354Z,30.97
2018-04-17T14:32:45.770Z,31.68
2018-04-17T14:35:14.182Z,32.71
2018-04-17T14:37:43.432Z,31.01
2018-04-17T14:40:11.834Z,31.30
2018-04-17T14:42:40.253Z,29.77
2018-04-17T14:45:08.666Z,30.04
2018-04-17T14:47:37.082Z,29.35
2018-04-17T14:50:05.495Z,31.16
2018-04-17T14:52:34.674Z,29.47
2018-04-17T14:55:03.262Z,30.43
2018-04-17T14:57:31.646Z,29.82
2018-04-17T15:00:00.071Z,32.02
2018-04-17T15:02:28.463Z,31.83
2018-04-17T15:04:56.859Z,30.55
2018-04-17T15:07:25.264Z,30.99
2018-04-17T15:09:53.662Z,32.25
2018-04-17T15:12:22.061Z,32.99
2018-04-17T15:14:51.201Z,34.04
2018-04-17T15:17:19.578Z,31.32
2018-04-17T15:19:47.991Z,31.16
2018-04-17T15:22:16.373Z,30.78
2018-04-17T15:24:44.754Z,31.88
2018-04-17T15:27:13.157Z,31.26
2018-04-17T15:29:41.556Z,31.59
2018-04-17T15:32:10.730Z,31.65
2018-04-17T15:34:39.117Z,33.87
2018-04-17T15:37:07.511Z,33.09
2018-04-17T15:39:35.944Z,30.84
2018-04-17T15:42:04.374Z,30.58
2018-04-17T15:44:32.785Z,31.66
2018-04-17T15:47:01.946Z,30.99
2018-04-17T15:49:30.353Z,29.65
2018-04-17T15:51:58.733Z,32.06
2018-04-17T15:54:27.133Z,33.37
2018-04-17T15:56:56.283Z,31.45
2018-04-17T15:59:24.712Z,31.71
2018-04-17T16:01:53.863Z,30.16
2018-04-17T16:04:22.250Z,30.38
2018-04-17T16:06:50.678Z,32.02
2018-04-17T16:09:19.098Z,31.85
2018-04-17T16:11:47.505Z,31.76
2018-04-17T16:14:15.885Z,31.70
2018-04-17T16:16:44.257Z,31.65
2018-04-17T16:19:12.675Z,31.77
2018-04-17T16:21:41.119Z,31.02
2018-04-17T16:24:09.517Z,33.29
2018-04-17T16:26:37.890Z,33.79
2018-04-17T16:29:06.279Z,34.26
2018-04-17T16:31:34.666Z,33.91
2018-04-17T16:34:03.089Z,33.48
2018-04-17T16:36:31.473Z,35.79
2018-04-17T16:38:59.870Z,34.99
2018-04-17T16:41:29.092Z,36.40
2018-04-17T16:43:57.482Z,35.35
2018-04-17T16:46:25.913Z,34.90
2018-04-17T16:48:55.054Z,36.29
2018-04-17T16:51:23.552Z,36.66
2018-04-17T16:53:51.949Z,36.99
2018-04-17T16:56:20.371Z,35.38
2018-04-17T16:58:48.812Z,36.33
2018-04-17T17:01:17.226Z,35.67
2018-04-17T17:03:46.383Z,36.05
2018-04-17T17:06:14.814Z,36.25
2018-04-17T17:08:43.240Z,35.81
2018-04-17T17:11:12.413Z,37.37
2018-04-17T17:13:40.805Z,37.30
2018-04-17T17:16:09.197Z,36.37
2018-04-17T17:18:37.920Z,37.01
2018-04-17T17:21:06.314Z,36.31
2018-04-17T17:23:34.701Z,37.38
2018-04-17T17:26:03.118Z,36.93
2018-04-17T17:28:31.507Z,37.24
2018-04-17T17:30:59.904Z,37.50
2018-04-17T17:33:29.102Z,37.75
2018-04-17T17:35:58.257Z,37.91
2018-04-17T17:38:26.647Z,37.28
2018-04-17T17:40:55.041Z,37.58
2018-04-17T17:43:24.212Z,38.49
2018-04-17T17:45:52.590Z,39.07
2018-04-17T17:48:21.001Z,38.86
2018-04-17T17:50:49.406Z,38.60
2018-04-17T17:53:17.815Z,39.83
2018-04-17T17:55:46.970Z,39.62
2018-04-17T17:58:15.391Z,40.48
2018-04-17T18:00:43.799Z,40.27
2018-04-17T18:03:12.190Z,40.46
2018-04-17T18:05:40.572Z,40.65
2018-04-17T18:08:08.972Z,41.39
2018-04-17T18:10:37.366Z,41.60
2018-04-17T18:13:05.763Z,42.21
2018-04-17T18:15:34.169Z,44.55
2018-04-17T18:18:02.690Z,46.58
2018-04-17T18:20:31.078Z,46.99
2018-04-17T18:22:59.667Z,48.14
2018-04-17T18:25:28.073Z,48.75
2018-04-17T18:27:56.489Z,49.80
2018-04-17T18:30:24.893Z,50.37
2018-04-17T18:32:54.074Z,49.88
2018-04-17T18:35:22.475Z,50.49
2018-04-17T18:37:51.634Z,51.73
2018-04-17T18:40:20.053Z,52.50
2018-04-17T18:42:48.470Z,53.20
2018-04-17T18:45:16.961Z,54.57
2018-04-17T18:47:45.452Z,55.23
2018-04-17T18:50:13.873Z,55.91
2018-04-17T18:52:42.305Z,56.45
2018-04-17T18:55:11.779Z,57.20
2018-04-17T18:57:40.173Z,58.13
2018-04-17T19:00:09.370Z,58.70
2018-04-17T19:02:37.877Z,58.37
2018-04-17T19:05:06.294Z,58.83
2018-04-17T19:07:34.699Z,58.78
2018-04-17T19:10:03.135Z,59.64
2018-04-17T19:12:31.563Z,60.40
2018-04-17T19:15:00.089Z,60.76
2018-04-17T19:17:29.286Z,60.83
2018-04-17T19:19:58.590Z,60.57
2018-04-17T19:22:27.763Z,61.88
2018-04-17T19:24:56.143Z,61.73
2018-04-17T19:27:24.582Z,62.33
2018-04-17T19:29:52.989Z,63.36
2018-04-17T19:32:21.399Z,63.45
2018-04-17T19:34:49.881Z,63.77
2018-04-17T19:37:18.264Z,63.70
2018-04-17T19:39:46.674Z,63.91
2018-04-17T19:42:15.852Z,63.75
2018-04-17T19:44:44.243Z,63.55
2018-04-17T19:47:12.691Z,64.06
2018-04-17T19:49:41.260Z,63.46
2018-04-17T19:52:09.750Z,63.89
2018-04-17T19:54:38.132Z,65.07
2018-04-17T19:57:06.665Z,65.76
2018-04-17T19:59:35.063Z,65.85
2018-04-17T20:02:04.232Z,66.12
2018-04-17T20:04:32.650Z,65.25
2018-04-17T20:07:01.817Z,65.54
2018-04-17T20:09:30.209Z,65.86
2018-04-17T20:11:58.630Z,66.31
2018-04-17T20:14:27.836Z,67.13
2018-04-17T20:16:56.263Z,67.64
2018-04-17T20:19:24.682Z,68.05
2018-04-17T20:21:53.104Z,68.35
2018-04-17T20:24:22.247Z,68.48
2018-04-17T20:26:50.665Z,69.07
2018-04-17T20:29:19.875Z,69.17
2018-04-17T20:31:48.266Z,70.00
2018-04-17T20:34:16.663Z,68.70
2018-04-17T20:36:45.043Z,68.07
2018-04-17T20:39:13.483Z,68.77
2018-04-17T20:41:41.879Z,68.94
2018-04-17T20:44:11.066Z,67.69
2018-04-17T20:46:39.473Z,68.09
2018-04-17T20:49:07.923Z,68.27
2018-04-17T20:51:36.324Z,67.81
2018-04-17T20:54:05.486Z,67.54
2018-04-17T20:56:33.908Z,68.31
2018-04-17T20:59:03.056Z,68.78
2018-04-17T21:01:31.455Z,68.94
2018-04-17T21:03:59.861Z,69.29
2018-04-17T21:06:28.294Z,70.17
2018-04-17T21:08:56.743Z,70.75
2018-04-17T21:11:25.202Z,71.48
2018-04-17T21:13:53.640Z,71.87
2018-04-17T21:16:22.061Z,72.35
2018-04-17T21:18:50.500Z,72.70
2018-04-17T21:21:19.664Z,73.05
2018-04-17T21:23:48.130Z,73.63
2018-04-17T21:26:17.285Z,74.17
2018-04-17T21:28:45.746Z,74.48
2018-04-17T21:31:14.158Z,74.88
2018-04-17T21:33:42.590Z,75.46
2018-04-17T21:36:11.786Z,75.94
2018-04-17T21:38:40.181Z,76.04
2018-04-17T21:41:09.621Z,76.20
2018-04-17T21:43:38.775Z,75.97
2018-04-17T21:46:07.248Z,75.87
2018-04-17T21:48:35.679Z,76.52
2018-04-17T21:51:04.095Z,76.63
2018-04-17T21:53:32.512Z,76.94
2018-04-17T21:56:00.916Z,77.20
2018-04-17T21:58:29.305Z,77.53
2018-04-17T22:00:57.721Z,77.96
2018-04-17T22:03:26.194Z,78.34
2018-04-17T22:05:55.363Z,77.28
2018-04-17T22:08:23.776Z,76.85
2018-04-17T22:10:52.990Z,77.71
2018-04-17T22:13:22.149Z,78.12
2018-04-17T22:15:50.537Z,78.37
2018-04-17T22:18:18.942Z,79.03
2018-04-17T22:20:48.117Z,79.62
2018-04-17T22:23:16.505Z,79.79
2018-04-17T22:25:44.914Z,80.08
2018-04-17T22:28:14.102Z,80.38
2018-04-17T22:30:42.527Z,80.39
2018-04-17T22:33:10.902Z,80.76
2018-04-17T22:35:39.316Z,81.37
2018-04-17T22:38:07.727Z,81.36
2018-04-17T22:40:36.111Z,80.38
2018-04-17T22:43:04.500Z,81.11
2018-04-17T22:45:33.356Z,80.98
2018-04-17T22:48:01.781Z,81.47
2018-04-17T22:50:30.170Z,80.87
2018-04-17T22:52:59.369Z,81.47
2018-04-17T22:55:28.694Z,81.94
2018-04-17T22:57:57.104Z,82.20
2018-04-17T23:00:26.243Z,81.76
2018-04-17T23:02:54.649Z,81.09
2018-04-17T23:05:23.803Z,81.73
2018-04-17T23:07:52.321Z,82.14
2018-04-17T23:10:21.525Z,82.13
2018-04-17T23:12:50.682Z,82.08
2018-04-17T23:15:19.256Z,82.17
2018-04-17T23:17:47.722Z,82.69
2018-04-17T23:20:16.106Z,83.02
2018-04-17T23:22:44.498Z,83.60
2018-04-17T23:25:12.904Z,83.53
2018-04-17T23:27:41.290Z,83.86
2018-04-17T23:30:09.714Z,84.29
2018-04-17T23:32:38.903Z,84.46
2018-04-17T23:35:07.379Z,84.46
2018-04-17T23:37:35.773Z,84.77
2018-04-17T23:40:04.182Z,84.97
2018-04-17T23:42:33.338Z,84.24
2018-04-17T23:45:01.756Z,84.12
2018-04-17T23:47:30.910Z,84.09
2018-04-17T23:49:59.289Z,83.71
2018-04-17T23:52:27.722Z,83.92
2018-04-17T23:54:56.872Z,83.35
2018-04-17T23:57:25.273Z,83.25
2018-04-17T23:59:53.673Z,83.66
